モスクワ/シェレメーチエヴォ の空港の天気 - METARとTAF

シェレメーチエヴォ国際空港(モスクワ) ( UUEE / SVO ) - ロシア モスクワ
飛行場実況気象(Metar)
観測時間02/17 17:30 MSK (02/17 14:30 UTC)
風向・風速西北西 10m/s 瞬間風速16m/s
視程10km以上
天気現象
なし
気温1℃
湿度69%
気圧998hPa
METARUUEE 171430Z 29010G16MPS CAVOK 01/M04 Q0998 R24L/190057 R24C/190057 NOSIG
過去の天気等 Google飛行場航空写真 Wunderground天気予報

過去48時間のMETAR

飛行場予報(TAF)
発表時間: 2/17 16:53 MSK (2/17 13:53 UTC)
予報対象時間: 17日18時 MSK ~ 18日18時 MSK
風向・風速北西 8m/s 瞬間風速 17m/s
視程10km以上
全天の8割程度の雲 雲底高度 340m
17日18時 MSK ~ 17日24時 MSK に一時的に
視程3100m
天気現象弱いしゅう雪 高い地吹雪
全天の8割程度の積乱雲 雲底高度 370m
TAF UUEE 171353Z 1715/1815 32008G17MPS 9999 BKN011 TX01/1715Z TNM06/1806Z
TEMPO 1715/1721 3100 -SHSN BLSN BKN012CB